Time;durP1;ratioP1;P1;durP2;ratioP2;P2;SDS_P1;SDS_P2;PMS_P1;PMS_P2;Temp;Humidity;BMP_temperature;BMP_pressure;BME280_temperature;BME280_humidity;BME280_pressure;Samples;Min_cycle;Max_cycle;Signal;HPM_P1;HPM_P2
2021/09/07 00:02:05;;;;;;;0.30;0.30;;;;;;;6.62;85.03;100369.56;5051025;28;20404;-66
2021/09/07 00:04:31;;;;;;;0.30;0.30;;;;;;;6.62;85.60;100380.31;5052185;28;20079;-66
2021/09/07 00:06:58;;;;;;;0.30;0.30;;;;;;;6.64;85.07;100375.72;5050982;28;20084;-67
2021/09/07 00:09:24;;;;;;;0.30;0.30;;;;;;;6.66;85.13;100373.78;5034498;28;20044;-69
2021/09/07 00:11:50;;;;;;;0.30;0.30;;;;;;;6.67;85.37;100375.50;5052666;28;20045;-69
2021/09/07 00:14:16;;;;;;;0.30;0.30;;;;;;;6.75;84.47;100373.13;5050809;28;20518;-67
2021/09/07 00:16:43;;;;;;;0.30;0.30;;;;;;;6.77;84.86;100365.84;5050742;28;20041;-66
2021/09/07 00:19:09;;;;;;;0.30;0.30;;;;;;;6.72;84.29;100368.81;5050602;28;20098;-67
2021/09/07 00:21:34;;;;;;;0.30;0.30;;;;;;;6.68;85.16;100371.84;5034129;28;20507;-68
2021/09/07 00:24:00;;;;;;;0.30;0.30;;;;;;;6.65;85.57;100366.69;5051294;28;20147;-68
2021/09/07 00:26:26;;;;;;;0.30;0.30;;;;;;;6.69;85.42;100370.88;5050095;28;20462;-66
2021/09/07 00:28:52;;;;;;;0.30;0.30;;;;;;;6.67;85.48;100370.13;5049940;28;20041;-68
2021/09/07 00:31:17;;;;;;;0.30;0.30;;;;;;;6.68;85.59;100366.47;5051440;28;20052;-68
2021/09/07 00:33:44;;;;;;;0.30;0.30;;;;;;;6.76;85.32;100369.47;5051305;28;20041;-68
2021/09/07 00:36:10;;;;;;;0.30;0.30;;;;;;;6.86;85.09;100370.53;5050033;28;20076;-69
2021/09/07 00:38:35;;;;;;;0.40;0.40;;;;;;;6.84;85.00;100372.50;5051022;28;20121;-67
2021/09/07 00:41:01;;;;;;;0.30;0.30;;;;;;;6.86;85.32;100369.69;5066589;28;20602;-68
2021/09/07 00:43:27;;;;;;;0.30;0.30;;;;;;;6.89;85.46;100375.69;5049065;28;20045;-67
2021/09/07 00:45:53;;;;;;;0.30;0.30;;;;;;;6.91;84.74;100379.16;5049472;28;20083;-68
2021/09/07 00:48:19;;;;;;;0.30;0.30;;;;;;;6.92;85.22;100378.16;5050549;28;20044;-68
2021/09/07 00:50:44;;;;;;;0.30;0.30;;;;;;;6.90;86.03;100372.03;5049772;28;20063;-67
2021/09/07 00:53:10;;;;;;;0.30;0.30;;;;;;;6.84;86.36;100367.13;5050892;28;20304;-68
2021/09/07 00:55:37;;;;;;;0.30;0.30;;;;;;;6.75;86.56;100368.59;5049715;28;20310;-69
2021/09/07 00:58:04;;;;;;;0.30;0.30;;;;;;;6.74;86.84;100374.09;5049533;28;20052;-67
2021/09/07 01:00:30;;;;;;;0.30;0.30;;;;;;;6.72;86.40;100374.19;5049386;28;20084;-66
2021/09/07 01:03:04;;;;;;;0.30;0.30;;;;;;;6.71;86.45;100377.00;5050642;28;20047;-68
2021/09/07 01:05:33;;;;;;;0.30;0.30;;;;;;;6.74;86.47;100385.72;5049127;28;20108;-67
2021/09/07 01:08:00;;;;;;;0.30;0.30;;;;;;;6.75;86.46;100375.81;5032634;28;20479;-68
2021/09/07 01:10:28;;;;;;;0.30;0.30;;;;;;;6.73;86.71;100375.94;5033076;28;20052;-67
2021/09/07 01:12:55;;;;;;;0.30;0.30;;;;;;;6.76;86.57;100377.53;5046453;28;20045;-67
2021/09/07 01:15:22;;;;;;;0.30;0.30;;;;;;;6.71;86.24;100364.44;5029566;28;20509;-66
2021/09/07 01:17:48;;;;;;;0.30;0.30;;;;;;;6.67;86.02;100365.63;5028778;28;20042;-67
2021/09/07 01:20:15;;;;;;;0.30;0.30;;;;;;;6.70;86.21;100364.53;5029020;28;20111;-67
2021/09/07 01:22:41;;;;;;;0.30;0.30;;;;;;;6.70;85.74;100360.03;5012692;28;20484;-69
2021/09/07 01:25:07;;;;;;;0.30;0.30;;;;;;;6.69;85.14;100360.13;5029094;28;20053;-68
2021/09/07 01:27:33;;;;;;;0.30;0.30;;;;;;;6.68;85.54;100363.78;5030273;28;20523;-67
2021/09/07 01:30:01;;;;;;;0.30;0.30;;;;;;;6.72;85.42;100367.97;5030173;28;20187;-69
2021/09/07 01:32:28;;;;;;;0.30;0.30;;;;;;;6.74;85.49;100357.97;5029088;28;20076;-66
2021/09/07 01:34:54;;;;;;;0.30;0.30;;;;;;;6.71;85.27;100360.88;5030154;28;20086;-67
2021/09/07 01:37:20;;;;;;;0.30;0.30;;;;;;;6.72;84.96;100354.53;5012303;28;20041;-67
2021/09/07 01:39:46;;;;;;;0.30;0.30;;;;;;;6.71;85.06;100366.25;5030341;28;20081;-67
2021/09/07 01:42:12;;;;;;;0.30;0.30;;;;;;;6.74;84.46;100355.28;5045447;28;20096;-66
2021/09/07 01:44:42;;;;;;;0.30;0.30;;;;;;;6.77;84.32;100349.72;5045079;28;20459;-66
2021/09/07 01:47:09;;;;;;;0.30;0.30;;;;;;;6.79;83.76;100347.75;5028781;28;20136;-67
2021/09/07 01:49:35;;;;;;;0.30;0.30;;;;;;;6.79;84.04;100353.13;5028615;28;20064;-67
2021/09/07 01:52:08;;;;;;;0.30;0.30;;;;;;;6.80;83.92;100354.88;5030540;28;20487;-68
2021/09/07 01:54:34;;;;;;;;;;;;;;;6.79;84.04;100337.00;5029824;28;20160;-67
2021/09/07 01:57:00;;;;;;;0.30;0.30;;;;;;;6.83;83.91;100343.03;5032453;28;19921;-67
2021/09/07 01:59:26;;;;;;;0.30;0.30;;;;;;;6.85;83.86;100341.94;5032823;28;20465;-67
2021/09/07 02:01:52;;;;;;;0.30;0.30;;;;;;;6.89;83.39;100348.81;5033085;28;20080;-69
2021/09/07 02:04:18;;;;;;;0.30;0.30;;;;;;;6.90;83.61;100344.28;5032795;28;20084;-66
2021/09/07 02:06:44;;;;;;;0.30;0.30;;;;;;;6.91;83.10;100341.50;5034383;28;20046;-68
2021/09/07 02:09:10;;;;;;;0.30;0.30;;;;;;;6.90;83.80;100345.16;5034209;28;20060;-68
2021/09/07 02:11:36;;;;;;;0.30;0.30;;;;;;;6.94;83.45;100335.88;5034687;28;20037;-68
2021/09/07 02:14:03;;;;;;;0.30;0.30;;;;;;;6.93;83.07;100334.19;5032748;28;20555;-67
2021/09/07 02:16:28;;;;;;;0.30;0.30;;;;;;;6.94;82.80;100335.03;5049571;28;20053;-68
2021/09/07 02:18:56;;;;;;;0.30;0.30;;;;;;;6.98;83.85;100334.72;5032759;28;20045;-67
2021/09/07 02:21:22;;;;;;;0.30;0.30;;;;;;;6.99;82.87;100332.88;5033991;28;20065;-68
2021/09/07 02:23:48;;;;;;;0.30;0.30;;;;;;;7.01;83.10;100337.16;5016413;28;20687;-68
2021/09/07 02:26:14;;;;;;;0.30;0.30;;;;;;;7.01;82.81;100325.56;5032549;28;20052;-66
2021/09/07 02:28:41;;;;;;;0.30;0.30;;;;;;;7.03;82.67;100328.16;5016300;28;20048;-68
2021/09/07 02:31:08;;;;;;;0.30;0.30;;;;;;;7.05;83.01;100318.13;5032233;28;20096;-67
2021/09/07 02:33:34;;;;;;;0.30;0.30;;;;;;;7.03;83.03;100317.41;4999431;28;20045;-69
2021/09/07 02:35:59;;;;;;;0.30;0.30;;;;;;;7.03;83.30;100328.16;5033667;28;20489;-67
2021/09/07 02:38:26;;;;;;;0.30;0.30;;;;;;;7.03;83.05;100330.84;5015417;28;20063;-68
2021/09/07 02:40:57;;;;;;;0.30;0.30;;;;;;;7.13;82.65;100334.56;5031828;28;20048;-70
2021/09/07 02:43:25;;;;;;;0.30;0.30;;;;;;;7.09;82.57;100333.91;5031612;28;20489;-67
2021/09/07 02:45:52;;;;;;;0.30;0.30;;;;;;;7.12;82.77;100332.84;5016889;28;20409;-68
2021/09/07 02:48:19;;;;;;;0.30;0.30;;;;;;;7.11;82.47;100331.97;5053401;28;20041;-67
2021/09/07 02:50:45;;;;;;;0.30;0.30;;;;;;;7.09;82.96;100330.38;5036158;28;20099;-68
2021/09/07 02:53:11;;;;;;;0.30;0.30;;;;;;;7.05;82.70;100335.13;5035719;28;20445;-67
2021/09/07 02:55:37;;;;;;;0.30;0.30;;;;;;;7.05;82.88;100337.81;5051298;28;20045;-68
2021/09/07 02:58:04;;;;;;;0.30;0.30;;;;;;;7.07;83.22;100329.66;5052785;28;20583;-68
2021/09/07 03:00:30;;;;;;;0.30;0.30;;;;;;;7.07;82.71;100335.88;5034557;28;20094;-67
2021/09/07 03:02:56;;;;;;;0.30;0.30;;;;;;;7.08;82.82;100342.09;5051845;28;20087;-68
2021/09/07 03:05:22;;;;;;;0.30;0.30;;;;;;;7.09;82.86;100338.44;5052588;28;20479;-68
2021/09/07 03:07:49;;;;;;;0.30;0.30;;;;;;;7.10;82.72;100340.19;5052536;28;20429;-69
2021/09/07 03:10:14;;;;;;;0.30;0.30;;;;;;;7.14;82.74;100330.91;5051567;28;20067;-67
2021/09/07 03:12:41;;;;;;;0.30;0.30;;;;;;;7.15;82.73;100327.25;5051625;28;20041;-67
2021/09/07 03:15:08;;;;;;;0.30;0.30;;;;;;;7.21;82.52;100329.50;5034753;28;20053;-67
2021/09/07 03:17:34;;;;;;;0.30;0.30;;;;;;;7.22;83.23;100329.38;5050894;28;20425;-68
2021/09/07 03:20:00;;;;;;;0.30;0.30;;;;;;;7.20;82.85;100330.44;5034964;28;20044;-68
2021/09/07 03:22:30;;;;;;;0.30;0.30;;;;;;;7.21;83.71;100334.88;5018301;28;20087;-69
2021/09/07 03:24:57;;;;;;;0.30;0.30;;;;;;;7.25;83.41;100334.53;5036227;28;20052;-69
2021/09/07 03:27:23;;;;;;;0.30;0.30;;;;;;;7.24;83.70;100326.59;5054256;28;20052;-68
2021/09/07 03:29:49;;;;;;;0.30;0.30;;;;;;;7.27;83.62;100334.41;5068904;28;20041;-70
2021/09/07 03:32:15;;;;;;;0.30;0.30;;;;;;;7.20;83.04;100336.72;5035595;28;20155;-70
2021/09/07 03:34:41;;;;;;;0.30;0.30;;;;;;;7.31;83.17;100349.31;5051058;28;20127;-70
2021/09/07 03:37:07;;;;;;;0.30;0.30;;;;;;;7.33;83.17;100346.53;5051043;28;20187;-69
2021/09/07 03:39:33;;;;;;;0.30;0.30;;;;;;;7.43;82.96;100353.81;5050934;28;20112;-68
2021/09/07 03:41:59;;;;;;;0.30;0.30;;;;;;;7.36;83.49;100347.19;5034681;28;20045;-69
2021/09/07 03:44:25;;;;;;;0.40;0.40;;;;;;;7.35;83.43;100334.72;5034456;28;20515;-69
2021/09/07 03:46:53;;;;;;;0.30;0.30;;;;;;;7.25;83.84;100339.03;5052480;28;20076;-69
2021/09/07 03:49:20;;;;;;;0.30;0.30;;;;;;;7.19;84.47;100329.59;5050881;28;20047;-69
2021/09/07 03:51:46;;;;;;;0.30;0.30;;;;;;;7.21;84.04;100333.03;5050871;28;20041;-71
2021/09/07 03:54:14;;;;;;;0.30;0.30;;;;;;;7.19;84.51;100328.72;5052096;28;20076;-69
2021/09/07 03:56:41;;;;;;;0.30;0.30;;;;;;;7.20;84.67;100325.06;5052010;28;20051;-68
2021/09/07 03:59:06;;;;;;;0.35;0.35;;;;;;;7.23;84.93;100346.34;5017253;28;20041;-67
2021/09/07 04:01:32;;;;;;;0.30;0.30;;;;;;;7.28;84.69;100338.81;5051930;28;20083;-68
2021/09/07 04:03:58;;;;;;;0.30;0.30;;;;;;;7.17;84.79;100330.69;5050173;28;20040;-67
2021/09/07 04:06:24;;;;;;;0.30;0.30;;;;;;;7.23;84.76;100330.22;5033603;28;20052;-68
2021/09/07 04:08:50;;;;;;;0.30;0.30;;;;;;;7.31;84.92;100330.50;5017491;28;20399;-65
2021/09/07 04:11:16;;;;;;;0.30;0.30;;;;;;;7.32;84.76;100329.56;5051706;28;20136;-70
2021/09/07 04:13:41;;;;;;;0.30;0.30;;;;;;;7.38;84.62;100337.16;5013785;28;20144;-68
2021/09/07 04:16:08;;;;;;;0.30;0.30;;;;;;;7.35;84.85;100337.41;5035747;28;20087;-70
2021/09/07 04:18:34;;;;;;;0.30;0.30;;;;;;;7.29;85.38;100316.34;5033302;28;20073;-71
2021/09/07 04:21:01;;;;;;;0.30;0.30;;;;;;;7.37;85.15;100327.38;5032717;28;20092;-67
2021/09/07 04:23:26;;;;;;;0.30;0.30;;;;;;;7.51;84.78;100333.56;5006728;28;20452;-70
2021/09/07 04:25:52;;;;;;;0.30;0.30;;;;;;;7.48;84.00;100332.81;5029497;28;20553;-68
2021/09/07 04:28:18;;;;;;;0.30;0.30;;;;;;;7.48;84.40;100324.72;5016664;28;20519;-69
2021/09/07 04:30:44;;;;;;;0.30;0.30;;;;;;;7.49;83.94;100326.47;5017207;28;20053;-70
2021/09/07 04:33:09;;;;;;;0.40;0.40;;;;;;;7.51;84.24;100328.19;5033585;28;20040;-72
2021/09/07 04:35:35;;;;;;;0.30;0.30;;;;;;;7.58;83.80;100330.28;5049945;28;20587;-72
2021/09/07 04:38:01;;;;;;;0.40;0.40;;;;;;;7.57;83.59;100330.38;5015788;28;20148;-70
2021/09/07 04:40:27;;;;;;;0.30;0.30;;;;;;;7.59;83.38;100331.16;5017292;28;20102;-70
2021/09/07 04:42:53;;;;;;;0.40;0.40;;;;;;;7.65;83.55;100336.06;5017408;28;20054;-70
2021/09/07 04:45:20;;;;;;;0.30;0.30;;;;;;;7.79;82.81;100322.44;5049595;28;20051;-68
2021/09/07 04:47:45;;;;;;;0.30;0.30;;;;;;;7.90;81.91;100330.53;5017309;28;20132;-72
2021/09/07 04:50:11;;;;;;;0.40;0.40;;;;;;;8.04;81.90;100339.38;5052916;28;20052;-70
2021/09/07 04:52:37;;;;;;;0.30;0.30;;;;;;;8.14;81.54;100335.00;5035183;28;20095;-71
2021/09/07 04:55:04;;;;;;;0.35;0.35;;;;;;;8.22;80.56;100346.03;5018739;28;20049;-69
2021/09/07 04:57:29;;;;;;;0.40;0.40;;;;;;;8.22;80.41;100346.88;5018861;28;20266;-73
2021/09/07 04:59:55;;;;;;;0.30;0.30;;;;;;;8.17;80.45;100337.47;5035429;28;20079;-73
2021/09/07 05:02:21;;;;;;;0.40;0.40;;;;;;;8.35;80.19;100330.66;5018302;28;20041;-71
2021/09/07 05:04:47;;;;;;;0.35;0.35;;;;;;;8.38;79.67;100329.59;5016689;28;20560;-70
2021/09/07 05:07:13;;;;;;;0.40;0.40;;;;;;;8.29;79.92;100331.09;5016064;28;20047;-72
2021/09/07 05:09:39;;;;;;;0.40;0.40;;;;;;;8.40;79.49;100328.47;5016334;28;20049;-69
2021/09/07 05:12:06;;;;;;;0.40;0.40;;;;;;;8.58;78.67;100322.59;5033065;28;20056;-71
2021/09/07 05:14:31;;;;;;;0.40;0.40;;;;;;;8.69;78.32;100322.59;5033072;28;20137;-69
2021/09/07 05:16:57;;;;;;;0.40;0.40;;;;;;;8.79;77.83;100328.97;5017173;28;20116;-69
2021/09/07 05:19:23;;;;;;;0.40;0.40;;;;;;;8.72;77.80;100322.38;5051491;28;20060;-71
2021/09/07 05:21:49;;;;;;;0.40;0.40;;;;;;;8.76;77.95;100323.84;5017347;28;20080;-71
2021/09/07 05:24:14;;;;;;;0.40;0.40;;;;;;;8.97;77.12;100323.09;5033695;28;20049;-69
2021/09/07 05:26:40;;;;;;;0.40;0.40;;;;;;;9.08;77.25;100323.06;5017136;28;20127;-70
2021/09/07 05:29:06;;;;;;;0.40;0.40;;;;;;;9.15;76.42;100327.00;5032825;28;20044;-70
2021/09/07 05:31:32;;;;;;;0.40;0.40;;;;;;;9.50;75.29;100328.59;5049278;28;20122;-70
2021/09/07 05:33:59;;;;;;;0.50;0.50;;;;;;;9.99;73.47;100332.59;5049113;28;20061;-69
2021/09/07 05:36:25;;;;;;;0.30;0.30;;;;;;;10.42;71.85;100323.50;5049116;28;20540;-72
2021/09/07 05:38:50;;;;;;;0.40;0.40;;;;;;;10.28;71.79;100314.75;5049362;28;20194;-71
2021/09/07 05:41:16;;;;;;;0.30;0.30;;;;;;;10.13;71.98;100316.91;5049128;28;20465;-71
2021/09/07 05:43:42;;;;;;;0.35;0.35;;;;;;;10.04;73.31;100330.34;5049201;28;20053;-70
2021/09/07 05:46:08;;;;;;;0.40;0.40;;;;;;;10.30;71.89;100320.88;5032143;28;20069;-69
2021/09/07 05:48:33;;;;;;;1.30;1.30;;;;;;;11.79;66.92;100308.34;5049014;28;20434;-71
2021/09/07 05:50:59;;;;;;;0.40;0.40;;;;;;;11.96;65.25;100324.94;5050166;28;20097;-69
2021/09/07 05:53:25;;;;;;;0.80;0.80;;;;;;;12.15;64.79;100319.50;5016069;28;20166;-71
2021/09/07 05:55:51;;;;;;;1.20;1.20;;;;;;;13.13;61.71;100326.28;5032317;28;20060;-71
2021/09/07 05:58:17;;;;;;;0.55;0.55;;;;;;;12.54;62.02;100330.22;5049125;28;20052;-69
2021/09/07 06:00:43;;;;;;;1.20;1.20;;;;;;;13.38;59.84;100323.88;5016010;28;20091;-69
2021/09/07 06:03:08;;;;;;;1.20;1.20;;;;;;;14.25;56.56;100317.72;5048932;28;20063;-69
2021/09/07 06:05:35;;;;;;;1.20;1.20;;;;;;;14.99;55.21;100319.06;5032223;28;20045;-69
2021/09/07 06:08:01;;;;;;;1.10;1.10;;;;;;;15.36;53.17;100326.03;5050704;28;20441;-71
2021/09/07 06:10:28;;;;;;;0.80;0.80;;;;;;;16.10;51.88;100325.13;5016187;28;20481;-68
2021/09/07 06:12:54;;;;;;;1.00;1.00;;;;;;;16.80;49.55;100335.47;5048787;28;20163;-71
2021/09/07 06:15:20;;;;;;;0.40;0.40;;;;;;;15.89;51.24;100332.97;5049108;28;20053;-69
2021/09/07 06:17:46;;;;;;;0.40;0.40;;;;;;;15.56;51.67;100330.16;5048799;28;20125;-69
2021/09/07 06:20:12;;;;;;;0.50;0.50;;;;;;;15.36;52.38;100334.19;5048732;28;20068;-70
2021/09/07 06:22:38;;;;;;;1.10;1.10;;;;;;;15.73;50.95;100331.06;5032536;28;20045;-71
2021/09/07 06:25:05;;;;;;;1.00;1.00;;;;;;;17.06;47.90;100329.75;5049349;28;20037;-70
2021/09/07 06:27:31;;;;;;;1.00;1.00;;;;;;;17.81;46.18;100322.91;5049462;28;20056;-69
2021/09/07 06:29:57;;;;;;;1.10;1.10;;;;;;;16.93;47.04;100317.66;5032237;28;20048;-70
2021/09/07 06:32:23;;;;;;;1.00;1.00;;;;;;;17.20;46.79;100310.91;5032182;28;20049;-71
2021/09/07 06:34:52;;;;;;;1.08;1.08;;;;;;;18.57;44.58;100310.06;5049858;28;20076;-71
2021/09/07 06:37:18;;;;;;;1.00;1.00;;;;;;;19.12;42.80;100310.69;5031936;28;20049;-69
2021/09/07 06:39:43;;;;;;;1.00;1.00;;;;;;;18.81;42.77;100319.13;5048680;28;20045;-68
2021/09/07 06:42:10;;;;;;;1.10;1.10;;;;;;;19.83;41.59;100322.75;5050084;28;20071;-69
2021/09/07 06:44:36;;;;;;;1.10;1.10;;;;;;;20.48;40.20;100318.06;5051576;28;20051;-69
2021/09/07 06:47:02;;;;;;;1.10;1.10;;;;;;;20.05;39.31;100311.78;5051929;28;20048;-68
2021/09/07 06:49:28;;;;;;;1.30;1.30;;;;;;;20.40;38.48;100316.31;5052267;28;20045;-70
2021/09/07 06:51:53;;;;;;;0.95;0.95;;;;;;;20.37;38.88;100315.88;5018867;28;20052;-69
2021/09/07 06:54:19;;;;;;;0.30;0.30;;;;;;;19.95;39.61;100307.47;5018964;28;20044;-69
2021/09/07 06:56:46;;;;;;;0.30;0.30;;;;;;;19.03;41.51;100310.78;5035010;28;20117;-71
2021/09/07 06:59:12;;;;;;;0.55;0.55;;;;;;;18.41;43.31;100319.31;5018868;28;20187;-70
2021/09/07 07:01:37;;;;;;;1.40;1.40;;;;;;;19.43;41.99;100316.78;5018764;28;20049;-71
2021/09/07 07:04:04;;;;;;;1.55;1.55;;;;;;;19.09;41.72;100308.34;5035449;28;20085;-70
2021/09/07 07:06:29;;;;;;;0.30;0.30;;;;;;;18.39;43.60;100309.56;5051628;28;20053;-71
2021/09/07 07:08:55;;;;;;;0.30;0.30;;;;;;;16.86;46.61;100304.75;5051363;28;20037;-70
2021/09/07 07:11:21;;;;;;;0.40;0.40;;;;;;;16.62;47.75;100305.63;5018534;28;20106;-71
2021/09/07 07:13:47;;;;;;;0.30;0.30;;;;;;;16.04;49.02;100301.25;5035747;28;20369;-70
2021/09/07 07:16:13;;;;;;;0.20;0.20;;;;;;;15.34;50.13;100298.91;5037693;28;20041;-70
2021/09/07 07:18:38;;;;;;;0.30;0.30;;;;;;;14.98;51.07;100292.84;5037989;28;20413;-71
2021/09/07 07:21:04;;;;;;;0.20;0.20;;;;;;;14.63;52.39;100305.63;5055242;28;20080;-69
2021/09/07 07:23:30;;;;;;;0.20;0.20;;;;;;;14.68;52.02;100311.41;5020420;28;20037;-69
2021/09/07 07:25:56;;;;;;;0.30;0.30;;;;;;;14.39;52.83;100297.25;5051162;28;20171;-72
2021/09/07 07:28:22;;;;;;;0.30;0.30;;;;;;;14.86;52.13;100315.94;5034800;28;20044;-68
2021/09/07 07:30:48;;;;;;;0.30;0.30;;;;;;;15.06;51.41;100306.47;5035012;28;20143;-70
2021/09/07 07:33:14;;;;;;;0.20;0.20;;;;;;;14.78;52.19;100313.19;5051530;28;20471;-71
2021/09/07 07:35:41;;;;;;;0.20;0.20;;;;;;;14.33;53.89;100297.88;5034841;28;20083;-70
2021/09/07 07:38:08;;;;;;;0.30;0.30;;;;;;;14.31;53.57;100300.78;5050990;28;20518;-71
2021/09/07 07:40:35;;;;;;;0.20;0.20;;;;;;;14.37;52.59;100299.28;5034800;28;20098;-71
2021/09/07 07:43:01;;;;;;;0.20;0.20;;;;;;;14.26;52.48;100315.84;5034129;28;20041;-69
2021/09/07 07:45:27;;;;;;;0.30;0.30;;;;;;;13.59;53.95;100319.00;5034433;28;20042;-70
2021/09/07 07:47:53;;;;;;;0.20;0.20;;;;;;;12.99;55.66;100311.34;5035257;28;20041;-70
2021/09/07 07:50:18;;;;;;;0.20;0.20;;;;;;;12.82;56.57;100311.28;5034710;28;20052;-71
2021/09/07 07:52:44;;;;;;;0.20;0.20;;;;;;;12.98;56.00;100312.38;5052413;28;20411;-70
2021/09/07 07:55:10;;;;;;;0.20;0.20;;;;;;;13.04;55.39;100314.47;5051430;28;20056;-72
2021/09/07 07:57:36;;;;;;;0.30;0.30;;;;;;;12.92;55.61;100304.81;5034560;28;20110;-71
2021/09/07 08:00:03;;;;;;;0.30;0.30;;;;;;;12.84;56.09;100299.28;5017814;28;20040;-74
2021/09/07 08:02:29;;;;;;;0.30;0.30;;;;;;;13.20;55.59;100305.69;5050590;28;20136;-71
2021/09/07 08:04:55;;;;;;;0.30;0.30;;;;;;;13.38;55.18;100313.88;5050253;28;20148;-70
2021/09/07 08:07:21;;;;;;;0.40;0.40;;;;;;;12.99;56.11;100307.78;5034286;28;20053;-70
2021/09/07 08:09:47;;;;;;;0.30;0.30;;;;;;;12.74;57.43;100293.91;5049864;28;20067;-71
2021/09/07 08:12:16;;;;;;;0.30;0.30;;;;;;;12.73;56.69;100313.91;5034251;28;20059;-71
2021/09/07 08:14:45;;;;;;;0.30;0.30;;;;;;;12.62;57.23;100300.53;5050464;28;20361;-71
2021/09/07 08:17:11;;;;;;;0.30;0.30;;;;;;;12.65;58.04;100294.81;5052068;28;20064;-71
2021/09/07 08:19:37;;;;;;;0.30;0.30;;;;;;;13.06;56.93;100303.47;5033828;28;20045;-70
2021/09/07 08:22:03;;;;;;;0.30;0.30;;;;;;;12.97;57.00;100301.66;5033822;28;20185;-70
2021/09/07 08:24:29;;;;;;;0.30;0.30;;;;;;;13.08;56.24;100304.16;5033649;28;20106;-70
2021/09/07 08:26:55;;;;;;;0.30;0.30;;;;;;;13.31;55.96;100295.63;5050705;28;20154;-71
2021/09/07 08:29:20;;;;;;;0.30;0.30;;;;;;;13.40;55.68;100294.72;5033717;28;20051;-70
2021/09/07 08:31:46;;;;;;;0.30;0.30;;;;;;;13.36;56.65;100296.03;5033594;28;20087;-70
2021/09/07 08:34:12;;;;;;;0.30;0.30;;;;;;;13.26;56.83;100304.22;5066512;28;20124;-70
2021/09/07 08:36:38;;;;;;;0.30;0.30;;;;;;;13.62;56.32;100299.69;5051594;28;20053;-70
2021/09/07 08:39:05;;;;;;;0.30;0.30;;;;;;;13.77;55.57;100301.88;5050273;28;20037;-72
2021/09/07 08:41:31;;;;;;;0.20;0.20;;;;;;;13.52;56.36;100309.78;5050112;28;20500;-70
2021/09/07 08:43:56;;;;;;;0.30;0.30;;;;;;;13.88;56.22;100298.91;5016591;28;20056;-71
2021/09/07 08:46:22;;;;;;;0.30;0.30;;;;;;;13.70;55.35;100297.03;5049797;28;20385;-71
2021/09/07 08:48:48;;;;;;;0.30;0.30;;;;;;;13.52;56.31;100304.34;5033362;28;20059;-71
2021/09/07 08:51:16;;;;;;;0.30;0.30;;;;;;;13.55;56.10;100304.03;5049664;28;20475;-71
2021/09/07 08:53:42;;;;;;;0.30;0.30;;;;;;;13.98;55.91;100299.69;5049828;28;20041;-71
2021/09/07 08:56:09;;;;;;;0.20;0.20;;;;;;;13.56;56.58;100300.31;5033086;28;20076;-71
2021/09/07 08:58:35;;;;;;;0.22;0.22;;;;;;;13.65;56.17;100304.81;5050028;28;20047;-70
2021/09/07 09:01:14;;;;;;;0.30;0.30;;;;;;;13.59;56.17;100294.56;5016539;28;20045;-70
2021/09/07 09:03:42;;;;;;;0.20;0.20;;;;;;;13.54;56.37;100296.06;5049423;28;20500;-71
2021/09/07 09:06:08;;;;;;;0.30;0.30;;;;;;;13.50;56.84;100296.34;5049205;28;20053;-69
2021/09/07 09:08:35;;;;;;;0.30;0.30;;;;;;;13.46;57.02;100299.53;5049516;28;20041;-71
2021/09/07 09:11:09;;;;;;;0.30;0.30;;;;;;;13.55;57.21;100292.31;5050717;28;20474;-71
2021/09/07 09:13:42;;;;;;;0.20;0.20;;;;;;;13.25;57.50;100295.25;5049465;28;20040;-70
2021/09/07 09:16:08;;;;;;;0.25;0.25;;;;;;;13.32;58.57;100294.63;5050530;28;20124;-71
2021/09/07 09:18:36;;;;;;;0.20;0.20;;;;;;;13.18;58.03;100291.38;5049428;28;20134;-71
2021/09/07 09:21:20;;;;;;;0.30;0.30;;;;;;;13.47;58.05;100295.81;5050427;28;20404;-70
2021/09/07 09:24:09;;;;;;;0.30;0.30;;;;;;;13.22;58.55;100289.22;5050677;28;20037;-71
2021/09/07 09:26:56;;;;;;;0.20;0.20;;;;;;;13.15;59.09;100297.13;5016199;28;20496;-71
2021/09/07 09:29:27;;;;;;;0.20;0.20;;;;;;;13.04;59.23;100290.03;5049545;28;20049;-71
2021/09/07 09:32:00;;;;;;;0.20;0.20;;;;;;;12.77;60.20;100285.47;5049626;28;20049;-71
2021/09/07 09:34:27;;;;;;;0.30;0.30;;;;;;;12.92;60.06;100284.97;5041609;28;20073;-71
2021/09/07 09:37:00;;;;;;;0.20;0.20;;;;;;;12.88;59.66;100294.44;5012813;28;20045;-71
2021/09/07 09:40:00;;;;;;;;;;;;;;;12.81;60.19;100287.88;5013217;28;20113;-69
2021/09/07 09:42:33;;;;;;;0.20;0.20;;;;;;;12.53;61.00;100290.56;4970520;28;19921;-71
2021/09/07 09:45:08;;;;;;;0.20;0.20;;;;;;;12.41;61.85;100291.75;5029217;28;20049;-71
2021/09/07 09:47:43;;;;;;;0.30;0.30;;;;;;;12.50;60.96;100301.69;5028906;28;20498;-73
2021/09/07 09:50:13;;;;;;;0.30;0.30;;;;;;;12.63;60.87;100296.81;5028896;28;20412;-70
2021/09/07 09:52:43;;;;;;;0.30;0.30;;;;;;;12.88;60.59;100291.72;5045809;28;20107;-70
2021/09/07 09:55:11;;;;;;;0.30;0.30;;;;;;;12.97;59.77;100288.06;5029219;28;20091;-70
2021/09/07 09:57:38;;;;;;;0.30;0.30;;;;;;;13.05;60.01;100296.31;5029136;28;20045;-70
2021/09/07 10:00:05;;;;;;;0.30;0.30;;;;;;;13.19;59.87;100303.09;5045856;28;20141;-70
2021/09/07 10:02:38;;;;;;;0.30;0.30;;;;;;;13.17;59.92;100292.41;5029444;28;20115;-71
2021/09/07 10:05:05;;;;;;;0.30;0.30;;;;;;;13.00;60.56;100295.91;5045835;28;20080;-72
2021/09/07 10:07:32;;;;;;;0.30;0.30;;;;;;;12.95;60.99;100290.09;5013208;28;20053;-71
2021/09/07 10:09:59;;;;;;;0.20;0.20;;;;;;;13.11;61.18;100294.88;5030572;28;20054;-71
2021/09/07 10:12:45;;;;;;;0.20;0.20;;;;;;;13.08;60.25;100301.44;5028651;28;20136;-70
2021/09/07 10:15:24;;;;;;;0.30;0.30;;;;;;;13.14;60.97;100319.00;5028610;28;20084;-71
2021/09/07 10:26:42;;;;;;;0.30;0.30;;;;;;;12.68;62.54;100294.50;5033838;28;20049;-71
2021/09/07 10:29:10;;;;;;;0.30;0.30;;;;;;;12.56;62.21;100306.53;5032350;28;20521;-71
2021/09/07 10:31:43;;;;;;;0.30;0.30;;;;;;;12.67;62.18;100306.34;5033938;28;20053;-71
2021/09/07 10:34:11;;;;;;;0.30;0.30;;;;;;;12.79;62.68;100296.16;5048739;28;20053;-71
2021/09/07 10:37:05;;;;;;;0.20;0.20;;;;;;;12.65;63.29;100305.66;5033597;28;20064;-71
2021/09/07 10:39:33;;;;;;;0.20;0.20;;;;;;;12.63;63.40;100310.38;5048980;28;20037;-71
2021/09/07 10:42:01;;;;;;;0.30;0.30;;;;;;;12.42;63.88;100298.88;5033648;28;20413;-70
2021/09/07 10:44:31;;;;;;;0.30;0.30;;;;;;;12.50;63.94;100304.41;5032066;28;20053;-71
2021/09/07 10:46:58;;;;;;;0.30;0.30;;;;;;;12.47;63.65;100302.88;5033267;28;20235;-70
2021/09/07 10:49:33;;;;;;;0.30;0.30;;;;;;;12.61;63.17;100306.94;5015748;28;20049;-71
2021/09/07 10:52:29;;;;;;;0.30;0.30;;;;;;;13.06;62.48;100300.75;5015700;28;20069;-71
2021/09/07 10:55:09;;;;;;;0.30;0.30;;;;;;;12.94;63.12;100299.22;5002275;28;20053;-71
2021/09/07 10:57:35;;;;;;;0.28;0.28;;;;;;;12.89;62.85;100306.97;5016724;28;20488;-71
2021/09/07 11:00:16;;;;;;;0.30;0.30;;;;;;;13.17;62.19;100300.53;5051710;28;20045;-70
2021/09/07 11:02:53;;;;;;;0.30;0.30;;;;;;;12.86;63.82;100307.28;5018770;28;20530;-70
2021/09/07 11:08:00;;;;;;;0.30;0.30;;;;;;;13.23;62.48;100299.94;5051375;28;20447;-71
2021/09/07 11:10:40;;;;;;;0.30;0.30;;;;;;;13.26;62.52;100307.78;5052961;28;20390;-71
2021/09/07 11:13:23;;;;;;;0.30;0.30;;;;;;;13.39;62.31;100306.59;5051839;28;20044;-70
2021/09/07 11:15:50;;;;;;;0.30;0.30;;;;;;;13.27;62.59;100306.81;5051503;28;20053;-72
2021/09/07 11:18:22;;;;;;;0.30;0.30;;;;;;;13.52;62.08;100309.78;5051680;28;20076;-71
2021/09/07 11:20:49;;;;;;;0.30;0.30;;;;;;;13.18;63.25;100310.38;5034971;28;20354;-71
2021/09/07 11:23:16;;;;;;;0.30;0.30;;;;;;;13.52;62.38;100305.19;5052789;28;20049;-71
2021/09/07 11:25:48;;;;;;;0.30;0.30;;;;;;;13.14;63.36;100300.00;5067874;28;20049;-69
2021/09/07 11:28:15;;;;;;;0.30;0.30;;;;;;;13.17;63.26;100303.25;5052873;28;20124;-71
2021/09/07 11:30:43;;;;;;;0.30;0.30;;;;;;;13.40;62.91;100300.16;5051586;28;20055;-71
2021/09/07 11:33:16;;;;;;;0.30;0.30;;;;;;;13.46;62.91;100302.25;5034710;28;20555;-70
2021/09/07 11:35:44;;;;;;;0.30;0.30;;;;;;;13.79;62.08;100310.72;5034941;28;20144;-71
2021/09/07 11:38:13;;;;;;;0.30;0.30;;;;;;;13.87;61.86;100302.66;5051331;28;20131;-71
2021/09/07 11:40:59;;;;;;;0.30;0.30;;;;;;;13.88;62.00;100301.63;5051498;28;20132;-70
2021/09/07 11:43:34;;;;;;;0.30;0.30;;;;;;;13.88;61.92;100294.31;5035538;28;20047;-70